NCAR-RAP Real-Time Weather Data

Output produced by METARs form (23 February 2020  02:37 UTC)
found at http://weather.rap.ucar.edu/surface/
 
KWMC 230156Z AUTO 32009KT 10SM CLR 07/M12 A2999 RMK AO2 SLP174 T00721117